sensor_id;sensor_type;location;lat;lon;timestamp;P1;durP1;ratioP1;P2;durP2;ratioP2
74995;SDS011;63545;51.690;5.202;2024-01-06T00:02:17;50.27;;;16.87;;
74995;SDS011;63545;51.690;5.202;2024-01-06T00:04:42;49.73;;;16.90;;
74995;SDS011;63545;51.690;5.202;2024-01-06T00:07:08;53.00;;;17.07;;
74995;SDS011;63545;51.690;5.202;2024-01-06T00:09:34;50.35;;;17.35;;
74995;SDS011;63545;51.690;5.202;2024-01-06T00:11:59;47.47;;;15.70;;
74995;SDS011;63545;51.690;5.202;2024-01-06T00:14:25;45.97;;;15.83;;
74995;SDS011;63545;51.690;5.202;2024-01-06T00:16:50;48.53;;;15.93;;
74995;SDS011;63545;51.690;5.202;2024-01-06T00:19:15;44.63;;;15.87;;
74995;SDS011;63545;51.690;5.202;2024-01-06T00:21:42;43.60;;;15.05;;
74995;SDS011;63545;51.690;5.202;2024-01-06T00:24:08;46.03;;;15.83;;
74995;SDS011;63545;51.690;5.202;2024-01-06T00:26:33;47.97;;;16.97;;
74995;SDS011;63545;51.690;5.202;2024-01-06T00:28:58;52.27;;;17.33;;
74995;SDS011;63545;51.690;5.202;2024-01-06T00:31:24;46.00;;;16.27;;
74995;SDS011;63545;51.690;5.202;2024-01-06T00:33:49;51.23;;;16.77;;
74995;SDS011;63545;51.690;5.202;2024-01-06T00:36:14;43.15;;;15.10;;
74995;SDS011;63545;51.690;5.202;2024-01-06T00:38:40;44.93;;;16.00;;
74995;SDS011;63545;51.690;5.202;2024-01-06T00:41:05;40.20;;;15.30;;
74995;SDS011;63545;51.690;5.202;2024-01-06T00:43:30;40.50;;;14.90;;
74995;SDS011;63545;51.690;5.202;2024-01-06T00:45:56;38.63;;;14.83;;
74995;SDS011;63545;51.690;5.202;2024-01-06T00:48:21;31.47;;;12.37;;
74995;SDS011;63545;51.690;5.202;2024-01-06T00:50:46;33.03;;;13.10;;
74995;SDS011;63545;51.690;5.202;2024-01-06T00:53:12;32.80;;;12.63;;
74995;SDS011;63545;51.690;5.202;2024-01-06T00:55:37;36.10;;;13.25;;
74995;SDS011;63545;51.690;5.202;2024-01-06T00:58:03;34.70;;;13.30;;
74995;SDS011;63545;51.690;5.202;2024-01-06T01:00:28;29.87;;;12.20;;
74995;SDS011;63545;51.690;5.202;2024-01-06T01:02:53;37.43;;;13.93;;
74995;SDS011;63545;51.690;5.202;2024-01-06T01:05:19;34.70;;;13.82;;
74995;SDS011;63545;51.690;5.202;2024-01-06T01:07:44;33.23;;;13.10;;
74995;SDS011;63545;51.690;5.202;2024-01-06T01:10:09;33.20;;;14.00;;
74995;SDS011;63545;51.690;5.202;2024-01-06T01:12:35;30.63;;;13.53;;
74995;SDS011;63545;51.690;5.202;2024-01-06T01:15:00;35.20;;;15.50;;
74995;SDS011;63545;51.690;5.202;2024-01-06T01:17:26;37.43;;;14.60;;
74995;SDS011;63545;51.690;5.202;2024-01-06T01:19:51;32.93;;;15.57;;
74995;SDS011;63545;51.690;5.202;2024-01-06T01:22:16;35.35;;;13.57;;
74995;SDS011;63545;51.690;5.202;2024-01-06T01:24:42;29.70;;;13.87;;
74995;SDS011;63545;51.690;5.202;2024-01-06T01:27:07;27.83;;;12.97;;
74995;SDS011;63545;51.690;5.202;2024-01-06T01:29:33;28.63;;;13.40;;
74995;SDS011;63545;51.690;5.202;2024-01-06T01:31:58;28.45;;;12.60;;
74995;SDS011;63545;51.690;5.202;2024-01-06T01:34:24;28.77;;;12.97;;
74995;SDS011;63545;51.690;5.202;2024-01-06T01:36:49;27.90;;;12.40;;
74995;SDS011;63545;51.690;5.202;2024-01-06T01:39:15;29.77;;;14.10;;
74995;SDS011;63545;51.690;5.202;2024-01-06T01:41:40;25.52;;;11.90;;
74995;SDS011;63545;51.690;5.202;2024-01-06T01:44:06;25.87;;;12.73;;
74995;SDS011;63545;51.690;5.202;2024-01-06T01:46:31;22.00;;;11.37;;
74995;SDS011;63545;51.690;5.202;2024-01-06T01:48:57;21.10;;;9.80;;
74995;SDS011;63545;51.690;5.202;2024-01-06T01:51:24;21.67;;;10.15;;
74995;SDS011;63545;51.690;5.202;2024-01-06T01:53:52;17.35;;;9.13;;
74995;SDS011;63545;51.690;5.202;2024-01-06T01:56:18;19.90;;;9.23;;
74995;SDS011;63545;51.690;5.202;2024-01-06T01:58:44;14.85;;;7.97;;
74995;SDS011;63545;51.690;5.202;2024-01-06T02:01:09;19.77;;;10.37;;
74995;SDS011;63545;51.690;5.202;2024-01-06T02:03:35;19.25;;;9.68;;
74995;SDS011;63545;51.690;5.202;2024-01-06T02:06:01;19.40;;;9.07;;
74995;SDS011;63545;51.690;5.202;2024-01-06T02:08:26;16.25;;;8.13;;
74995;SDS011;63545;51.690;5.202;2024-01-06T02:10:54;18.00;;;9.07;;
74995;SDS011;63545;51.690;5.202;2024-01-06T02:13:20;19.88;;;8.90;;
74995;SDS011;63545;51.690;5.202;2024-01-06T02:15:45;17.93;;;8.30;;
74995;SDS011;63545;51.690;5.202;2024-01-06T02:18:10;24.10;;;10.40;;
74995;SDS011;63545;51.690;5.202;2024-01-06T02:20:35;19.20;;;9.20;;
74995;SDS011;63545;51.690;5.202;2024-01-06T02:23:02;20.95;;;9.40;;
74995;SDS011;63545;51.690;5.202;2024-01-06T02:25:27;16.50;;;7.70;;
74995;SDS011;63545;51.690;5.202;2024-01-06T02:27:54;17.67;;;8.32;;
74995;SDS011;63545;51.690;5.202;2024-01-06T02:30:19;16.93;;;7.90;;
74995;SDS011;63545;51.690;5.202;2024-01-06T02:32:44;15.30;;;8.10;;
74995;SDS011;63545;51.690;5.202;2024-01-06T02:35:10;20.90;;;10.30;;
74995;SDS011;63545;51.690;5.202;2024-01-06T02:37:35;17.02;;;8.35;;
74995;SDS011;63545;51.690;5.202;2024-01-06T02:40:00;17.00;;;8.40;;
74995;SDS011;63545;51.690;5.202;2024-01-06T02:42:25;19.77;;;8.67;;
74995;SDS011;63545;51.690;5.202;2024-01-06T02:44:51;17.37;;;9.10;;
74995;SDS011;63545;51.690;5.202;2024-01-06T02:47:16;14.40;;;8.40;;
74995;SDS011;63545;51.690;5.202;2024-01-06T02:49:42;15.60;;;8.47;;
74995;SDS011;63545;51.690;5.202;2024-01-06T02:52:07;17.90;;;8.33;;
74995;SDS011;63545;51.690;5.202;2024-01-06T02:54:32;15.13;;;8.20;;
74995;SDS011;63545;51.690;5.202;2024-01-06T02:56:58;11.50;;;6.13;;
74995;SDS011;63545;51.690;5.202;2024-01-06T02:59:23;12.90;;;6.78;;
74995;SDS011;63545;51.690;5.202;2024-01-06T03:01:49;13.40;;;7.53;;
74995;SDS011;63545;51.690;5.202;2024-01-06T03:04:14;15.50;;;7.63;;
74995;SDS011;63545;51.690;5.202;2024-01-06T03:06:39;17.07;;;8.37;;
74995;SDS011;63545;51.690;5.202;2024-01-06T03:09:05;16.57;;;8.43;;
74995;SDS011;63545;51.690;5.202;2024-01-06T03:11:30;15.57;;;8.43;;
74995;SDS011;63545;51.690;5.202;2024-01-06T03:13:55;13.37;;;7.30;;
74995;SDS011;63545;51.690;5.202;2024-01-06T03:16:21;12.60;;;8.00;;
74995;SDS011;63545;51.690;5.202;2024-01-06T03:18:46;17.53;;;8.07;;
74995;SDS011;63545;51.690;5.202;2024-01-06T03:21:21;16.80;;;8.83;;
74995;SDS011;63545;51.690;5.202;2024-01-06T03:23:47;16.15;;;8.52;;
74995;SDS011;63545;51.690;5.202;2024-01-06T03:26:13;17.48;;;9.30;;
74995;SDS011;63545;51.690;5.202;2024-01-06T03:28:38;20.00;;;9.43;;
74995;SDS011;63545;51.690;5.202;2024-01-06T03:31:03;21.43;;;10.03;;
74995;SDS011;63545;51.690;5.202;2024-01-06T03:33:29;14.90;;;7.97;;
74995;SDS011;63545;51.690;5.202;2024-01-06T03:35:54;17.43;;;8.57;;
74995;SDS011;63545;51.690;5.202;2024-01-06T03:38:20;21.27;;;10.20;;
74995;SDS011;63545;51.690;5.202;2024-01-06T03:40:45;27.73;;;10.03;;
74995;SDS011;63545;51.690;5.202;2024-01-06T03:43:11;21.03;;;10.60;;
74995;SDS011;63545;51.690;5.202;2024-01-06T03:45:36;21.57;;;11.33;;
74995;SDS011;63545;51.690;5.202;2024-01-06T03:48:01;23.50;;;11.93;;
74995;SDS011;63545;51.690;5.202;2024-01-06T03:50:27;20.47;;;11.53;;
74995;SDS011;63545;51.690;5.202;2024-01-06T03:52:52;28.90;;;11.40;;
74995;SDS011;63545;51.690;5.202;2024-01-06T03:55:18;24.40;;;11.30;;
74995;SDS011;63545;51.690;5.202;2024-01-06T03:57:43;19.73;;;9.90;;
74995;SDS011;63545;51.690;5.202;2024-01-06T04:00:08;17.35;;;9.38;;
74995;SDS011;63545;51.690;5.202;2024-01-06T04:02:34;18.42;;;9.23;;
74995;SDS011;63545;51.690;5.202;2024-01-06T04:04:59;15.90;;;8.20;;
74995;SDS011;63545;51.690;5.202;2024-01-06T04:07:24;13.60;;;7.60;;
74995;SDS011;63545;51.690;5.202;2024-01-06T04:09:50;11.70;;;7.07;;
74995;SDS011;63545;51.690;5.202;2024-01-06T04:12:15;9.88;;;6.75;;
74995;SDS011;63545;51.690;5.202;2024-01-06T04:14:41;14.73;;;6.97;;
74995;SDS011;63545;51.690;5.202;2024-01-06T04:17:06;14.33;;;6.83;;
74995;SDS011;63545;51.690;5.202;2024-01-06T04:19:31;10.50;;;5.73;;
74995;SDS011;63545;51.690;5.202;2024-01-06T04:21:57;13.20;;;7.37;;
74995;SDS011;63545;51.690;5.202;2024-01-06T04:24:22;14.97;;;8.30;;
74995;SDS011;63545;51.690;5.202;2024-01-06T04:26:47;14.88;;;7.68;;
74995;SDS011;63545;51.690;5.202;2024-01-06T04:29:15;14.93;;;7.10;;
74995;SDS011;63545;51.690;5.202;2024-01-06T04:31:40;12.37;;;6.20;;
74995;SDS011;63545;51.690;5.202;2024-01-06T04:34:06;16.55;;;7.97;;
74995;SDS011;63545;51.690;5.202;2024-01-06T04:36:31;15.17;;;7.33;;
74995;SDS011;63545;51.690;5.202;2024-01-06T04:38:56;13.97;;;7.77;;
74995;SDS011;63545;51.690;5.202;2024-01-06T04:41:22;16.57;;;8.17;;
74995;SDS011;63545;51.690;5.202;2024-01-06T04:43:47;15.10;;;8.02;;
74995;SDS011;63545;51.690;5.202;2024-01-06T04:46:12;15.77;;;8.10;;
74995;SDS011;63545;51.690;5.202;2024-01-06T04:48:40;16.23;;;7.60;;
74995;SDS011;63545;51.690;5.202;2024-01-06T04:51:06;13.15;;;7.65;;
74995;SDS011;63545;51.690;5.202;2024-01-06T04:53:34;12.73;;;6.65;;
74995;SDS011;63545;51.690;5.202;2024-01-06T04:56:00;12.07;;;6.77;;
74995;SDS011;63545;51.690;5.202;2024-01-06T04:58:25;13.63;;;6.83;;
74995;SDS011;63545;51.690;5.202;2024-01-06T05:00:50;12.15;;;6.07;;
74995;SDS011;63545;51.690;5.202;2024-01-06T05:03:17;11.27;;;6.70;;
74995;SDS011;63545;51.690;5.202;2024-01-06T05:05:43;13.77;;;6.80;;
74995;SDS011;63545;51.690;5.202;2024-01-06T05:08:08;16.00;;;8.13;;
74995;SDS011;63545;51.690;5.202;2024-01-06T05:10:33;15.90;;;7.53;;
74995;SDS011;63545;51.690;5.202;2024-01-06T05:12:59;13.87;;;6.90;;
74995;SDS011;63545;51.690;5.202;2024-01-06T05:15:24;16.43;;;8.03;;
74995;SDS011;63545;51.690;5.202;2024-01-06T05:17:49;17.27;;;7.80;;
74995;SDS011;63545;51.690;5.202;2024-01-06T05:20:14;17.33;;;8.77;;
74995;SDS011;63545;51.690;5.202;2024-01-06T05:22:40;19.88;;;9.07;;
74995;SDS011;63545;51.690;5.202;2024-01-06T05:25:05;15.70;;;8.73;;
74995;SDS011;63545;51.690;5.202;2024-01-06T05:27:31;19.73;;;9.80;;
74995;SDS011;63545;51.690;5.202;2024-01-06T05:29:56;19.80;;;9.50;;
74995;SDS011;63545;51.690;5.202;2024-01-06T05:32:21;20.92;;;9.65;;
74995;SDS011;63545;51.690;5.202;2024-01-06T05:34:48;19.45;;;10.30;;
74995;SDS011;63545;51.690;5.202;2024-01-06T05:37:14;17.87;;;8.93;;
74995;SDS011;63545;51.690;5.202;2024-01-06T05:39:39;16.30;;;8.30;;
74995;SDS011;63545;51.690;5.202;2024-01-06T05:42:05;18.70;;;8.03;;
74995;SDS011;63545;51.690;5.202;2024-01-06T05:44:31;13.90;;;6.75;;
74995;SDS011;63545;51.690;5.202;2024-01-06T05:46:56;16.73;;;7.33;;
74995;SDS011;63545;51.690;5.202;2024-01-06T05:49:21;14.53;;;7.37;;
74995;SDS011;63545;51.690;5.202;2024-01-06T05:51:47;15.77;;;7.67;;
74995;SDS011;63545;51.690;5.202;2024-01-06T05:54:12;14.17;;;7.23;;
74995;SDS011;63545;51.690;5.202;2024-01-06T05:56:38;14.15;;;7.47;;
74995;SDS011;63545;51.690;5.202;2024-01-06T05:59:03;11.43;;;6.67;;
74995;SDS011;63545;51.690;5.202;2024-01-06T06:01:29;10.87;;;6.00;;
74995;SDS011;63545;51.690;5.202;2024-01-06T06:03:54;11.93;;;6.20;;
74995;SDS011;63545;51.690;5.202;2024-01-06T06:06:19;10.48;;;6.28;;
74995;SDS011;63545;51.690;5.202;2024-01-06T06:08:45;12.97;;;6.40;;
74995;SDS011;63545;51.690;5.202;2024-01-06T06:11:11;10.18;;;5.95;;
74995;SDS011;63545;51.690;5.202;2024-01-06T06:13:45;9.98;;;6.00;;
74995;SDS011;63545;51.690;5.202;2024-01-06T06:16:10;10.07;;;5.45;;
74995;SDS011;63545;51.690;5.202;2024-01-06T06:18:39;12.17;;;5.63;;
74995;SDS011;63545;51.690;5.202;2024-01-06T06:21:05;16.35;;;5.85;;
74995;SDS011;63545;51.690;5.202;2024-01-06T06:23:31;9.60;;;6.03;;
74995;SDS011;63545;51.690;5.202;2024-01-06T06:25:57;10.37;;;5.87;;
74995;SDS011;63545;51.690;5.202;2024-01-06T06:28:22;12.73;;;6.50;;
74995;SDS011;63545;51.690;5.202;2024-01-06T06:30:47;10.80;;;6.00;;
74995;SDS011;63545;51.690;5.202;2024-01-06T06:33:13;9.50;;;5.97;;
74995;SDS011;63545;51.690;5.202;2024-01-06T06:35:38;13.63;;;5.90;;
74995;SDS011;63545;51.690;5.202;2024-01-06T06:38:03;13.02;;;6.35;;
74995;SDS011;63545;51.690;5.202;2024-01-06T06:40:29;13.15;;;6.63;;
74995;SDS011;63545;51.690;5.202;2024-01-06T06:42:55;13.20;;;6.63;;
74995;SDS011;63545;51.690;5.202;2024-01-06T06:45:20;14.60;;;6.93;;
74995;SDS011;63545;51.690;5.202;2024-01-06T06:47:47;14.75;;;7.57;;
74995;SDS011;63545;51.690;5.202;2024-01-06T06:50:14;15.20;;;7.35;;
74995;SDS011;63545;51.690;5.202;2024-01-06T06:52:40;16.05;;;7.75;;
74995;SDS011;63545;51.690;5.202;2024-01-06T06:55:07;13.88;;;6.78;;
74995;SDS011;63545;51.690;5.202;2024-01-06T06:57:32;15.43;;;7.07;;
74995;SDS011;63545;51.690;5.202;2024-01-06T06:59:57;15.43;;;7.00;;
74995;SDS011;63545;51.690;5.202;2024-01-06T07:02:23;12.38;;;6.72;;
74995;SDS011;63545;51.690;5.202;2024-01-06T07:04:48;14.03;;;6.60;;
74995;SDS011;63545;51.690;5.202;2024-01-06T07:07:14;12.67;;;6.57;;
74995;SDS011;63545;51.690;5.202;2024-01-06T07:09:40;13.33;;;7.20;;
74995;SDS011;63545;51.690;5.202;2024-01-06T07:12:05;13.55;;;6.43;;
74995;SDS011;63545;51.690;5.202;2024-01-06T07:14:31;13.73;;;6.97;;
74995;SDS011;63545;51.690;5.202;2024-01-06T07:16:56;11.30;;;6.73;;
74995;SDS011;63545;51.690;5.202;2024-01-06T07:19:22;16.33;;;7.45;;
74995;SDS011;63545;51.690;5.202;2024-01-06T07:21:48;15.47;;;7.03;;
74995;SDS011;63545;51.690;5.202;2024-01-06T07:24:13;15.63;;;7.33;;
74995;SDS011;63545;51.690;5.202;2024-01-06T07:26:39;17.58;;;7.38;;
74995;SDS011;63545;51.690;5.202;2024-01-06T07:29:04;17.23;;;7.50;;
74995;SDS011;63545;51.690;5.202;2024-01-06T07:31:29;15.33;;;7.27;;
74995;SDS011;63545;51.690;5.202;2024-01-06T07:33:55;14.50;;;7.60;;
74995;SDS011;63545;51.690;5.202;2024-01-06T07:36:20;16.23;;;7.63;;
74995;SDS011;63545;51.690;5.202;2024-01-06T07:38:46;16.50;;;8.55;;
74995;SDS011;63545;51.690;5.202;2024-01-06T07:41:12;18.57;;;8.27;;
74995;SDS011;63545;51.690;5.202;2024-01-06T07:43:37;20.53;;;8.90;;
74995;SDS011;63545;51.690;5.202;2024-01-06T07:46:02;17.53;;;8.77;;
74995;SDS011;63545;51.690;5.202;2024-01-06T07:48:28;19.10;;;9.15;;
74995;SDS011;63545;51.690;5.202;2024-01-06T07:50:54;19.23;;;9.00;;
74995;SDS011;63545;51.690;5.202;2024-01-06T07:53:19;23.67;;;9.90;;
74995;SDS011;63545;51.690;5.202;2024-01-06T07:55:45;23.40;;;9.73;;
74995;SDS011;63545;51.690;5.202;2024-01-06T07:58:10;26.20;;;9.70;;
74995;SDS011;63545;51.690;5.202;2024-01-06T08:00:36;33.90;;;11.07;;
74995;SDS011;63545;51.690;5.202;2024-01-06T08:03:02;28.63;;;10.90;;
74995;SDS011;63545;51.690;5.202;2024-01-06T08:05:30;23.25;;;10.63;;
74995;SDS011;63545;51.690;5.202;2024-01-06T08:07:56;22.70;;;11.20;;
74995;SDS011;63545;51.690;5.202;2024-01-06T08:10:21;27.00;;;10.50;;
74995;SDS011;63545;51.690;5.202;2024-01-06T08:12:46;25.60;;;11.17;;
74995;SDS011;63545;51.690;5.202;2024-01-06T08:15:13;26.52;;;11.32;;
74995;SDS011;63545;51.690;5.202;2024-01-06T08:17:38;32.67;;;10.67;;
74995;SDS011;63545;51.690;5.202;2024-01-06T08:20:05;27.17;;;10.63;;
74995;SDS011;63545;51.690;5.202;2024-01-06T08:22:31;21.70;;;9.43;;
74995;SDS011;63545;51.690;5.202;2024-01-06T08:24:57;22.63;;;9.43;;
74995;SDS011;63545;51.690;5.202;2024-01-06T08:27:22;21.37;;;9.33;;
74995;SDS011;63545;51.690;5.202;2024-01-06T08:29:48;22.73;;;8.93;;
74995;SDS011;63545;51.690;5.202;2024-01-06T08:32:15;24.73;;;9.60;;
74995;SDS011;63545;51.690;5.202;2024-01-06T08:34:40;16.77;;;8.63;;
74995;SDS011;63545;51.690;5.202;2024-01-06T08:37:05;18.70;;;9.13;;
74995;SDS011;63545;51.690;5.202;2024-01-06T08:39:31;18.43;;;8.77;;
74995;SDS011;63545;51.690;5.202;2024-01-06T08:41:56;18.73;;;8.50;;
74995;SDS011;63545;51.690;5.202;2024-01-06T08:44:22;18.55;;;8.80;;
74995;SDS011;63545;51.690;5.202;2024-01-06T08:46:47;17.97;;;9.60;;
74995;SDS011;63545;51.690;5.202;2024-01-06T08:49:12;15.47;;;8.23;;
74995;SDS011;63545;51.690;5.202;2024-01-06T08:51:38;20.10;;;9.43;;
74995;SDS011;63545;51.690;5.202;2024-01-06T08:54:03;22.47;;;10.53;;
74995;SDS011;63545;51.690;5.202;2024-01-06T08:56:30;19.50;;;9.48;;
74995;SDS011;63545;51.690;5.202;2024-01-06T08:58:56;25.13;;;11.02;;
74995;SDS011;63545;51.690;5.202;2024-01-06T09:01:22;18.93;;;10.40;;
74995;SDS011;63545;51.690;5.202;2024-01-06T09:03:47;22.60;;;10.33;;
74995;SDS011;63545;51.690;5.202;2024-01-06T09:06:14;19.25;;;10.18;;
74995;SDS011;63545;51.690;5.202;2024-01-06T09:08:39;23.53;;;11.10;;
74995;SDS011;63545;51.690;5.202;2024-01-06T09:11:05;19.15;;;10.80;;
74995;SDS011;63545;51.690;5.202;2024-01-06T09:13:30;17.23;;;9.83;;
74995;SDS011;63545;51.690;5.202;2024-01-06T09:15:57;19.05;;;10.57;;
74995;SDS011;63545;51.690;5.202;2024-01-06T09:18:22;23.33;;;10.25;;
74995;SDS011;63545;51.690;5.202;2024-01-06T09:20:47;19.83;;;10.17;;
74995;SDS011;63545;51.690;5.202;2024-01-06T09:23:13;20.00;;;9.93;;
74995;SDS011;63545;51.690;5.202;2024-01-06T09:25:38;19.20;;;10.00;;
74995;SDS011;63545;51.690;5.202;2024-01-06T09:28:05;19.63;;;10.50;;
74995;SDS011;63545;51.690;5.202;2024-01-06T09:30:30;21.33;;;10.00;;
74995;SDS011;63545;51.690;5.202;2024-01-06T09:32:55;19.17;;;9.05;;
74995;SDS011;63545;51.690;5.202;2024-01-06T09:35:21;16.63;;;9.43;;
74995;SDS011;63545;51.690;5.202;2024-01-06T09:37:46;22.27;;;9.50;;
74995;SDS011;63545;51.690;5.202;2024-01-06T09:40:12;24.90;;;11.07;;
74995;SDS011;63545;51.690;5.202;2024-01-06T09:42:40;20.13;;;10.18;;
74995;SDS011;63545;51.690;5.202;2024-01-06T09:45:06;17.67;;;10.00;;
74995;SDS011;63545;51.690;5.202;2024-01-06T09:47:33;20.05;;;9.80;;
74995;SDS011;63545;51.690;5.202;2024-01-06T09:50:00;15.57;;;9.20;;
74995;SDS011;63545;51.690;5.202;2024-01-06T09:52:26;19.37;;;9.33;;
74995;SDS011;63545;51.690;5.202;2024-01-06T09:54:52;18.23;;;9.93;;
74995;SDS011;63545;51.690;5.202;2024-01-06T09:57:19;19.23;;;9.93;;
74995;SDS011;63545;51.690;5.202;2024-01-06T09:59:45;17.37;;;9.10;;
74995;SDS011;63545;51.690;5.202;2024-01-06T10:02:12;18.00;;;8.93;;
74995;SDS011;63545;51.690;5.202;2024-01-06T10:04:39;19.75;;;9.95;;
74995;SDS011;63545;51.690;5.202;2024-01-06T10:07:05;19.13;;;9.60;;
74995;SDS011;63545;51.690;5.202;2024-01-06T10:09:30;19.07;;;9.13;;
74995;SDS011;63545;51.690;5.202;2024-01-06T10:11:56;19.83;;;10.00;;
74995;SDS011;63545;51.690;5.202;2024-01-06T10:14:24;18.52;;;10.05;;
74995;SDS011;63545;51.690;5.202;2024-01-06T10:16:51;17.85;;;10.00;;
74995;SDS011;63545;51.690;5.202;2024-01-06T10:19:17;18.50;;;10.38;;
74995;SDS011;63545;51.690;5.202;2024-01-06T10:21:43;19.83;;;9.93;;
74995;SDS011;63545;51.690;5.202;2024-01-06T10:24:08;15.93;;;9.50;;
74995;SDS011;63545;51.690;5.202;2024-01-06T10:26:34;21.23;;;10.38;;
74995;SDS011;63545;51.690;5.202;2024-01-06T10:29:00;19.27;;;9.23;;
74995;SDS011;63545;51.690;5.202;2024-01-06T10:31:25;15.80;;;9.70;;
74995;SDS011;63545;51.690;5.202;2024-01-06T10:33:51;17.55;;;9.52;;
74995;SDS011;63545;51.690;5.202;2024-01-06T10:36:17;18.67;;;8.83;;
74995;SDS011;63545;51.690;5.202;2024-01-06T10:38:44;21.87;;;9.87;;
74995;SDS011;63545;51.690;5.202;2024-01-06T10:41:09;18.33;;;9.45;;
74995;SDS011;63545;51.690;5.202;2024-01-06T10:43:36;19.30;;;9.77;;
74995;SDS011;63545;51.690;5.202;2024-01-06T10:46:05;20.20;;;10.60;;
74995;SDS011;63545;51.690;5.202;2024-01-06T10:48:35;19.48;;;9.80;;
74995;SDS011;63545;51.690;5.202;2024-01-06T10:51:03;20.60;;;9.73;;
74995;SDS011;63545;51.690;5.202;2024-01-06T10:53:32;17.15;;;10.23;;
74995;SDS011;63545;51.690;5.202;2024-01-06T10:55:58;17.52;;;10.23;;
74995;SDS011;63545;51.690;5.202;2024-01-06T10:58:24;19.08;;;9.63;;
74995;SDS011;63545;51.690;5.202;2024-01-06T11:00:50;22.20;;;10.00;;
74995;SDS011;63545;51.690;5.202;2024-01-06T11:03:16;19.65;;;9.65;;
74995;SDS011;63545;51.690;5.202;2024-01-06T11:05:43;19.85;;;9.13;;
74995;SDS011;63545;51.690;5.202;2024-01-06T11:08:08;17.88;;;9.65;;
74995;SDS011;63545;51.690;5.202;2024-01-06T11:10:35;17.97;;;9.70;;
74995;SDS011;63545;51.690;5.202;2024-01-06T11:13:14;17.88;;;9.13;;
74995;SDS011;63545;51.690;5.202;2024-01-06T11:15:50;16.38;;;8.50;;
74995;SDS011;63545;51.690;5.202;2024-01-06T11:21:21;19.17;;;8.45;;
74995;SDS011;63545;51.690;5.202;2024-01-06T11:26:45;13.05;;;7.43;;
74995;SDS011;63545;51.690;5.202;2024-01-06T11:29:14;11.85;;;7.28;;
74995;SDS011;63545;51.690;5.202;2024-01-06T11:31:39;10.07;;;6.63;;
74995;SDS011;63545;51.690;5.202;2024-01-06T11:34:17;12.93;;;6.70;;
74995;SDS011;63545;51.690;5.202;2024-01-06T11:36:44;11.32;;;6.82;;
74995;SDS011;63545;51.690;5.202;2024-01-06T11:42:05;10.10;;;4.90;;
74995;SDS011;63545;51.690;5.202;2024-01-06T11:44:35;8.90;;;5.47;;
74995;SDS011;63545;51.690;5.202;2024-01-06T11:47:02;9.18;;;4.95;;
74995;SDS011;63545;51.690;5.202;2024-01-06T11:49:29;8.07;;;4.95;;
74995;SDS011;63545;51.690;5.202;2024-01-06T11:51:55;8.77;;;4.30;;
74995;SDS011;63545;51.690;5.202;2024-01-06T11:54:21;6.63;;;4.57;;
74995;SDS011;63545;51.690;5.202;2024-01-06T11:56:47;6.03;;;4.17;;
74995;SDS011;63545;51.690;5.202;2024-01-06T11:59:13;7.47;;;4.50;;
74995;SDS011;63545;51.690;5.202;2024-01-06T12:01:38;7.97;;;4.60;;
74995;SDS011;63545;51.690;5.202;2024-01-06T12:04:07;7.47;;;4.40;;
74995;SDS011;63545;51.690;5.202;2024-01-06T12:06:32;8.20;;;4.80;;
74995;SDS011;63545;51.690;5.202;2024-01-06T12:09:05;8.98;;;4.90;;
74995;SDS011;63545;51.690;5.202;2024-01-06T12:11:31;9.35;;;4.70;;
74995;SDS011;63545;51.690;5.202;2024-01-06T12:13:56;9.00;;;5.23;;
74995;SDS011;63545;51.690;5.202;2024-01-06T12:16:22;10.37;;;5.80;;
74995;SDS011;63545;51.690;5.202;2024-01-06T12:18:47;9.00;;;5.55;;
74995;SDS011;63545;51.690;5.202;2024-01-06T12:21:13;9.37;;;5.40;;
74995;SDS011;63545;51.690;5.202;2024-01-06T12:23:38;10.10;;;5.80;;
74995;SDS011;63545;51.690;5.202;2024-01-06T12:26:03;8.97;;;5.67;;
74995;SDS011;63545;51.690;5.202;2024-01-06T12:28:29;9.10;;;5.75;;
74995;SDS011;63545;51.690;5.202;2024-01-06T12:30:54;10.30;;;5.60;;
74995;SDS011;63545;51.690;5.202;2024-01-06T12:33:20;9.07;;;5.70;;
74995;SDS011;63545;51.690;5.202;2024-01-06T12:35:45;9.37;;;5.67;;
74995;SDS011;63545;51.690;5.202;2024-01-06T12:38:10;9.83;;;5.90;;
74995;SDS011;63545;51.690;5.202;2024-01-06T12:40:36;10.37;;;5.70;;
74995;SDS011;63545;51.690;5.202;2024-01-06T12:43:03;9.85;;;5.70;;
74995;SDS011;63545;51.690;5.202;2024-01-06T12:45:31;12.73;;;6.07;;
74995;SDS011;63545;51.690;5.202;2024-01-06T12:48:05;10.18;;;6.00;;
74995;SDS011;63545;51.690;5.202;2024-01-06T12:50:31;11.80;;;6.17;;
74995;SDS011;63545;51.690;5.202;2024-01-06T12:52:56;10.90;;;6.30;;
74995;SDS011;63545;51.690;5.202;2024-01-06T12:55:22;13.93;;;7.33;;
74995;SDS011;63545;51.690;5.202;2024-01-06T12:57:47;14.43;;;7.45;;
74995;SDS011;63545;51.690;5.202;2024-01-06T13:00:13;14.18;;;7.25;;
74995;SDS011;63545;51.690;5.202;2024-01-06T13:02:38;13.73;;;6.93;;
74995;SDS011;63545;51.690;5.202;2024-01-06T13:05:04;12.30;;;6.95;;
74995;SDS011;63545;51.690;5.202;2024-01-06T13:07:29;14.47;;;7.43;;
74995;SDS011;63545;51.690;5.202;2024-01-06T13:09:55;12.93;;;7.87;;
74995;SDS011;63545;51.690;5.202;2024-01-06T13:12:20;13.98;;;8.25;;
74995;SDS011;63545;51.690;5.202;2024-01-06T13:14:46;14.43;;;8.37;;
74995;SDS011;63545;51.690;5.202;2024-01-06T13:17:14;16.52;;;8.82;;
74995;SDS011;63545;51.690;5.202;2024-01-06T13:19:39;14.63;;;8.70;;
74995;SDS011;63545;51.690;5.202;2024-01-06T13:22:05;22.30;;;9.50;;
74995;SDS011;63545;51.690;5.202;2024-01-06T13:24:30;17.27;;;10.00;;
74995;SDS011;63545;51.690;5.202;2024-01-06T13:26:56;23.43;;;8.87;;
74995;SDS011;63545;51.690;5.202;2024-01-06T13:29:23;17.73;;;9.77;;
74995;SDS011;63545;51.690;5.202;2024-01-06T13:31:49;18.53;;;10.23;;
74995;SDS011;63545;51.690;5.202;2024-01-06T13:34:14;18.98;;;10.60;;
74995;SDS011;63545;51.690;5.202;2024-01-06T13:36:39;23.48;;;10.48;;
74995;SDS011;63545;51.690;5.202;2024-01-06T13:39:06;16.80;;;9.87;;
74995;SDS011;63545;51.690;5.202;2024-01-06T13:41:31;17.65;;;9.63;;
74995;SDS011;63545;51.690;5.202;2024-01-06T13:43:57;18.35;;;10.05;;
74995;SDS011;63545;51.690;5.202;2024-01-06T13:46:23;16.63;;;9.50;;
74995;SDS011;63545;51.690;5.202;2024-01-06T13:48:49;18.38;;;9.70;;
74995;SDS011;63545;51.690;5.202;2024-01-06T13:51:15;18.23;;;10.13;;
74995;SDS011;63545;51.690;5.202;2024-01-06T13:53:40;18.97;;;9.93;;
74995;SDS011;63545;51.690;5.202;2024-01-06T13:56:06;17.73;;;9.30;;
74995;SDS011;63545;51.690;5.202;2024-01-06T13:58:31;16.65;;;9.40;;
74995;SDS011;63545;51.690;5.202;2024-01-06T14:00:56;21.10;;;10.10;;
74995;SDS011;63545;51.690;5.202;2024-01-06T14:03:21;19.57;;;10.40;;
74995;SDS011;63545;51.690;5.202;2024-01-06T14:05:47;17.13;;;8.70;;
74995;SDS011;63545;51.690;5.202;2024-01-06T14:08:12;15.73;;;9.33;;
74995;SDS011;63545;51.690;5.202;2024-01-06T14:10:39;19.58;;;9.50;;
74995;SDS011;63545;51.690;5.202;2024-01-06T14:13:04;15.83;;;9.37;;
74995;SDS011;63545;51.690;5.202;2024-01-06T14:15:30;15.02;;;8.63;;
74995;SDS011;63545;51.690;5.202;2024-01-06T14:17:57;21.60;;;9.88;;
74995;SDS011;63545;51.690;5.202;2024-01-06T14:20:24;15.20;;;8.45;;
74995;SDS011;63545;51.690;5.202;2024-01-06T14:22:49;16.47;;;9.93;;
74995;SDS011;63545;51.690;5.202;2024-01-06T14:25:14;15.82;;;9.48;;
74995;SDS011;63545;51.690;5.202;2024-01-06T14:27:42;19.33;;;9.35;;
74995;SDS011;63545;51.690;5.202;2024-01-06T14:30:08;15.57;;;9.00;;
74995;SDS011;63545;51.690;5.202;2024-01-06T14:32:34;18.35;;;9.75;;